sensor_id;sensor_type;location;lat;lon;timestamp;temperature;humidity
32187;DHT22;18686;53.084;8.872;2023-06-26T00:01:28;22.00;99.90
32187;DHT22;18686;53.084;8.872;2023-06-26T00:03:58;22.00;99.90
32187;DHT22;18686;53.084;8.872;2023-06-26T00:06:27;21.90;99.90
32187;DHT22;18686;53.084;8.872;2023-06-26T00:08:56;21.90;99.90
32187;DHT22;18686;53.084;8.872;2023-06-26T00:11:27;21.90;99.90
32187;DHT22;18686;53.084;8.872;2023-06-26T00:13:58;21.80;99.90
32187;DHT22;18686;53.084;8.872;2023-06-26T00:16:27;21.80;99.90
32187;DHT22;18686;53.084;8.872;2023-06-26T00:18:55;21.80;99.90
32187;DHT22;18686;53.084;8.872;2023-06-26T00:21:24;21.70;99.90
32187;DHT22;18686;53.084;8.872;2023-06-26T00:23:52;21.70;99.90
32187;DHT22;18686;53.084;8.872;2023-06-26T00:26:20;21.70;99.90
32187;DHT22;18686;53.084;8.872;2023-06-26T00:28:50;21.70;99.90
32187;DHT22;18686;53.084;8.872;2023-06-26T00:31:19;21.60;99.90
32187;DHT22;18686;53.084;8.872;2023-06-26T00:33:48;21.60;99.90
32187;DHT22;18686;53.084;8.872;2023-06-26T00:36:16;21.50;99.90
32187;DHT22;18686;53.084;8.872;2023-06-26T00:38:44;21.50;99.90
32187;DHT22;18686;53.084;8.872;2023-06-26T00:41:12;21.50;99.90
32187;DHT22;18686;53.084;8.872;2023-06-26T00:43:41;21.40;99.90
32187;DHT22;18686;53.084;8.872;2023-06-26T00:46:13;21.40;99.90
32187;DHT22;18686;53.084;8.872;2023-06-26T00:48:42;21.40;99.90
32187;DHT22;18686;53.084;8.872;2023-06-26T00:51:13;21.30;99.90
32187;DHT22;18686;53.084;8.872;2023-06-26T00:53:42;21.30;99.90
32187;DHT22;18686;53.084;8.872;2023-06-26T00:56:10;21.20;99.90
32187;DHT22;18686;53.084;8.872;2023-06-26T00:58:39;21.20;99.90
32187;DHT22;18686;53.084;8.872;2023-06-26T01:01:07;21.10;99.90
32187;DHT22;18686;53.084;8.872;2023-06-26T01:03:44;21.10;99.90
32187;DHT22;18686;53.084;8.872;2023-06-26T01:06:14;21.00;99.90
32187;DHT22;18686;53.084;8.872;2023-06-26T01:08:43;21.00;99.90
32187;DHT22;18686;53.084;8.872;2023-06-26T01:11:13;21.00;99.90
32187;DHT22;18686;53.084;8.872;2023-06-26T01:13:42;21.00;99.90
32187;DHT22;18686;53.084;8.872;2023-06-26T01:16:12;20.90;99.90
32187;DHT22;18686;53.084;8.872;2023-06-26T01:18:40;20.90;99.90
32187;DHT22;18686;53.084;8.872;2023-06-26T01:21:11;20.90;99.90
32187;DHT22;18686;53.084;8.872;2023-06-26T01:23:52;20.80;99.90
32187;DHT22;18686;53.084;8.872;2023-06-26T01:26:27;20.80;99.90
32187;DHT22;18686;53.084;8.872;2023-06-26T01:28:57;20.80;99.90
32187;DHT22;18686;53.084;8.872;2023-06-26T01:31:27;20.80;99.90
32187;DHT22;18686;53.084;8.872;2023-06-26T01:33:59;20.70;99.90
32187;DHT22;18686;53.084;8.872;2023-06-26T01:36:27;20.70;99.90
32187;DHT22;18686;53.084;8.872;2023-06-26T01:38:55;20.70;99.90
32187;DHT22;18686;53.084;8.872;2023-06-26T01:41:24;20.70;99.90
32187;DHT22;18686;53.084;8.872;2023-06-26T01:44:11;20.60;99.90
32187;DHT22;18686;53.084;8.872;2023-06-26T01:46:52;20.60;99.90
32187;DHT22;18686;53.084;8.872;2023-06-26T01:49:29;20.60;99.90
32187;DHT22;18686;53.084;8.872;2023-06-26T01:52:06;20.50;99.90
32187;DHT22;18686;53.084;8.872;2023-06-26T01:54:46;20.50;99.90
32187;DHT22;18686;53.084;8.872;2023-06-26T01:57:17;20.50;99.90
32187;DHT22;18686;53.084;8.872;2023-06-26T01:59:47;20.50;99.90
32187;DHT22;18686;53.084;8.872;2023-06-26T02:02:16;20.50;99.90
32187;DHT22;18686;53.084;8.872;2023-06-26T02:04:44;20.40;99.90
32187;DHT22;18686;53.084;8.872;2023-06-26T02:07:15;20.40;99.90
32187;DHT22;18686;53.084;8.872;2023-06-26T02:09:43;20.40;99.90
32187;DHT22;18686;53.084;8.872;2023-06-26T02:12:12;20.40;99.90
32187;DHT22;18686;53.084;8.872;2023-06-26T02:14:40;20.30;99.90
32187;DHT22;18686;53.084;8.872;2023-06-26T02:17:10;20.30;99.90
32187;DHT22;18686;53.084;8.872;2023-06-26T02:19:38;20.30;99.90
32187;DHT22;18686;53.084;8.872;2023-06-26T02:22:14;20.30;99.90
32187;DHT22;18686;53.084;8.872;2023-06-26T02:24:43;20.30;99.90
32187;DHT22;18686;53.084;8.872;2023-06-26T02:27:11;20.30;99.90
32187;DHT22;18686;53.084;8.872;2023-06-26T02:29:40;20.30;99.90
32187;DHT22;18686;53.084;8.872;2023-06-26T02:32:10;20.20;99.90
32187;DHT22;18686;53.084;8.872;2023-06-26T02:34:38;20.30;99.90
32187;DHT22;18686;53.084;8.872;2023-06-26T02:37:06;20.20;99.90
32187;DHT22;18686;53.084;8.872;2023-06-26T02:39:35;20.30;99.90
32187;DHT22;18686;53.084;8.872;2023-06-26T02:42:05;20.20;99.90
32187;DHT22;18686;53.084;8.872;2023-06-26T02:44:33;20.20;99.90
32187;DHT22;18686;53.084;8.872;2023-06-26T02:47:01;20.20;99.90
32187;DHT22;18686;53.084;8.872;2023-06-26T02:49:31;20.20;99.90
32187;DHT22;18686;53.084;8.872;2023-06-26T02:52:00;20.10;99.90
32187;DHT22;18686;53.084;8.872;2023-06-26T02:54:29;20.10;99.90
32187;DHT22;18686;53.084;8.872;2023-06-26T02:57:02;20.10;99.90
32187;DHT22;18686;53.084;8.872;2023-06-26T02:59:32;20.10;99.90
32187;DHT22;18686;53.084;8.872;2023-06-26T03:02:01;20.10;99.90
32187;DHT22;18686;53.084;8.872;2023-06-26T03:04:36;20.10;99.90
32187;DHT22;18686;53.084;8.872;2023-06-26T03:07:07;20.10;99.90
32187;DHT22;18686;53.084;8.872;2023-06-26T03:09:37;20.00;99.90
32187;DHT22;18686;53.084;8.872;2023-06-26T03:12:07;20.00;99.90
32187;DHT22;18686;53.084;8.872;2023-06-26T03:14:35;20.00;99.90
32187;DHT22;18686;53.084;8.872;2023-06-26T03:17:04;20.10;99.90
32187;DHT22;18686;53.084;8.872;2023-06-26T03:19:36;20.10;99.90
32187;DHT22;18686;53.084;8.872;2023-06-26T03:22:13;20.10;99.90
32187;DHT22;18686;53.084;8.872;2023-06-26T03:24:44;20.10;99.90
32187;DHT22;18686;53.084;8.872;2023-06-26T03:27:12;20.10;99.90
32187;DHT22;18686;53.084;8.872;2023-06-26T03:29:44;20.10;99.90
32187;DHT22;18686;53.084;8.872;2023-06-26T03:32:13;20.10;99.90
32187;DHT22;18686;53.084;8.872;2023-06-26T03:34:42;20.20;99.90
32187;DHT22;18686;53.084;8.872;2023-06-26T03:37:11;20.20;99.90
32187;DHT22;18686;53.084;8.872;2023-06-26T03:39:39;20.20;99.90
32187;DHT22;18686;53.084;8.872;2023-06-26T03:42:08;20.20;99.90
32187;DHT22;18686;53.084;8.872;2023-06-26T03:44:37;20.30;99.90
32187;DHT22;18686;53.084;8.872;2023-06-26T03:47:05;20.30;99.90
32187;DHT22;18686;53.084;8.872;2023-06-26T03:49:35;20.30;99.90
32187;DHT22;18686;53.084;8.872;2023-06-26T03:52:06;20.30;99.90
32187;DHT22;18686;53.084;8.872;2023-06-26T03:54:34;20.30;99.90
32187;DHT22;18686;53.084;8.872;2023-06-26T03:57:03;20.40;99.90
32187;DHT22;18686;53.084;8.872;2023-06-26T03:59:31;20.40;99.90
32187;DHT22;18686;53.084;8.872;2023-06-26T04:01:59;20.40;99.90
32187;DHT22;18686;53.084;8.872;2023-06-26T04:04:28;20.40;99.90
32187;DHT22;18686;53.084;8.872;2023-06-26T04:06:58;20.50;99.90
32187;DHT22;18686;53.084;8.872;2023-06-26T04:09:28;20.50;99.90
32187;DHT22;18686;53.084;8.872;2023-06-26T04:11:56;20.50;99.90
32187;DHT22;18686;53.084;8.872;2023-06-26T04:14:25;20.50;99.90
32187;DHT22;18686;53.084;8.872;2023-06-26T04:16:53;20.50;99.90
32187;DHT22;18686;53.084;8.872;2023-06-26T04:19:21;20.60;99.90
32187;DHT22;18686;53.084;8.872;2023-06-26T04:21:49;20.50;99.90
32187;DHT22;18686;53.084;8.872;2023-06-26T04:24:18;20.60;99.90
32187;DHT22;18686;53.084;8.872;2023-06-26T04:26:47;20.60;99.90
32187;DHT22;18686;53.084;8.872;2023-06-26T04:29:16;20.60;99.90
32187;DHT22;18686;53.084;8.872;2023-06-26T04:31:44;20.60;99.90
32187;DHT22;18686;53.084;8.872;2023-06-26T04:34:13;20.60;99.90
32187;DHT22;18686;53.084;8.872;2023-06-26T04:36:42;20.70;99.90
32187;DHT22;18686;53.084;8.872;2023-06-26T04:39:15;20.80;99.90
32187;DHT22;18686;53.084;8.872;2023-06-26T04:41:44;20.80;99.90
32187;DHT22;18686;53.084;8.872;2023-06-26T04:44:14;20.90;99.90
32187;DHT22;18686;53.084;8.872;2023-06-26T04:46:42;20.90;99.90
32187;DHT22;18686;53.084;8.872;2023-06-26T04:49:11;21.00;99.90
32187;DHT22;18686;53.084;8.872;2023-06-26T04:51:40;21.10;99.90
32187;DHT22;18686;53.084;8.872;2023-06-26T04:54:09;21.10;99.90
32187;DHT22;18686;53.084;8.872;2023-06-26T04:56:38;21.20;99.90
32187;DHT22;18686;53.084;8.872;2023-06-26T04:59:07;21.20;99.90
32187;DHT22;18686;53.084;8.872;2023-06-26T05:01:41;21.30;99.90
32187;DHT22;18686;53.084;8.872;2023-06-26T05:04:15;21.30;99.90
32187;DHT22;18686;53.084;8.872;2023-06-26T05:06:43;21.40;99.90
32187;DHT22;18686;53.084;8.872;2023-06-26T05:09:12;21.50;99.90
32187;DHT22;18686;53.084;8.872;2023-06-26T05:11:40;21.60;99.90
32187;DHT22;18686;53.084;8.872;2023-06-26T05:14:09;21.70;99.90
32187;DHT22;18686;53.084;8.872;2023-06-26T05:16:37;21.80;99.90
32187;DHT22;18686;53.084;8.872;2023-06-26T05:19:07;21.90;99.90
32187;DHT22;18686;53.084;8.872;2023-06-26T05:21:36;22.00;99.90
32187;DHT22;18686;53.084;8.872;2023-06-26T05:24:05;22.10;99.90
32187;DHT22;18686;53.084;8.872;2023-06-26T05:26:34;22.20;99.90
32187;DHT22;18686;53.084;8.872;2023-06-26T05:29:03;22.20;99.90
32187;DHT22;18686;53.084;8.872;2023-06-26T05:31:33;22.30;99.90
32187;DHT22;18686;53.084;8.872;2023-06-26T05:34:06;22.30;99.90
32187;DHT22;18686;53.084;8.872;2023-06-26T05:36:35;22.40;99.90
32187;DHT22;18686;53.084;8.872;2023-06-26T05:39:04;22.40;99.90
32187;DHT22;18686;53.084;8.872;2023-06-26T05:41:33;22.50;99.90
32187;DHT22;18686;53.084;8.872;2023-06-26T05:44:03;22.50;99.90
32187;DHT22;18686;53.084;8.872;2023-06-26T05:46:31;22.60;99.90
32187;DHT22;18686;53.084;8.872;2023-06-26T05:49:00;22.70;99.90
32187;DHT22;18686;53.084;8.872;2023-06-26T05:51:30;22.80;99.90
32187;DHT22;18686;53.084;8.872;2023-06-26T05:53:59;22.90;99.90
32187;DHT22;18686;53.084;8.872;2023-06-26T05:56:28;23.00;99.90
32187;DHT22;18686;53.084;8.872;2023-06-26T05:58:57;23.10;99.90
32187;DHT22;18686;53.084;8.872;2023-06-26T06:01:26;23.20;99.90
32187;DHT22;18686;53.084;8.872;2023-06-26T06:03:54;23.30;99.90
32187;DHT22;18686;53.084;8.872;2023-06-26T06:06:23;23.40;99.90
32187;DHT22;18686;53.084;8.872;2023-06-26T06:08:53;23.50;99.90
32187;DHT22;18686;53.084;8.872;2023-06-26T06:11:21;23.70;99.90
32187;DHT22;18686;53.084;8.872;2023-06-26T06:13:49;23.80;99.90
32187;DHT22;18686;53.084;8.872;2023-06-26T06:16:18;23.90;99.90
32187;DHT22;18686;53.084;8.872;2023-06-26T06:18:46;24.00;99.90
32187;DHT22;18686;53.084;8.872;2023-06-26T06:21:14;24.00;99.90
32187;DHT22;18686;53.084;8.872;2023-06-26T06:23:42;24.10;99.90
32187;DHT22;18686;53.084;8.872;2023-06-26T06:26:12;24.20;99.30
32187;DHT22;18686;53.084;8.872;2023-06-26T06:28:40;24.30;98.30
32187;DHT22;18686;53.084;8.872;2023-06-26T06:31:08;24.50;98.10
32187;DHT22;18686;53.084;8.872;2023-06-26T06:33:37;24.70;97.40
32187;DHT22;18686;53.084;8.872;2023-06-26T06:36:05;24.90;97.20
32187;DHT22;18686;53.084;8.872;2023-06-26T06:38:33;25.10;94.50
32187;DHT22;18686;53.084;8.872;2023-06-26T06:41:01;25.20;94.00
32187;DHT22;18686;53.084;8.872;2023-06-26T06:43:31;25.40;93.10
32187;DHT22;18686;53.084;8.872;2023-06-26T06:45:59;25.70;93.00
32187;DHT22;18686;53.084;8.872;2023-06-26T06:48:27;26.00;90.20
32187;DHT22;18686;53.084;8.872;2023-06-26T06:50:56;26.20;90.20
32187;DHT22;18686;53.084;8.872;2023-06-26T06:53:24;26.40;87.20
32187;DHT22;18686;53.084;8.872;2023-06-26T06:55:53;26.60;85.30
32187;DHT22;18686;53.084;8.872;2023-06-26T06:58:21;26.80;84.40
32187;DHT22;18686;53.084;8.872;2023-06-26T07:00:51;27.00;80.60
32187;DHT22;18686;53.084;8.872;2023-06-26T07:03:19;27.20;80.90
32187;DHT22;18686;53.084;8.872;2023-06-26T07:05:49;27.30;80.10
32187;DHT22;18686;53.084;8.872;2023-06-26T07:08:17;27.40;77.50
32187;DHT22;18686;53.084;8.872;2023-06-26T07:10:46;27.50;77.60
32187;DHT22;18686;53.084;8.872;2023-06-26T07:13:14;27.60;78.00
32187;DHT22;18686;53.084;8.872;2023-06-26T07:15:42;27.90;77.10
32187;DHT22;18686;53.084;8.872;2023-06-26T07:18:12;28.10;76.10
32187;DHT22;18686;53.084;8.872;2023-06-26T07:20:40;28.30;74.50
32187;DHT22;18686;53.084;8.872;2023-06-26T07:23:09;28.40;71.90
32187;DHT22;18686;53.084;8.872;2023-06-26T07:25:38;28.60;71.70
32187;DHT22;18686;53.084;8.872;2023-06-26T07:28:10;28.70;70.70
32187;DHT22;18686;53.084;8.872;2023-06-26T07:30:38;28.90;70.50
32187;DHT22;18686;53.084;8.872;2023-06-26T07:33:07;29.20;68.70
32187;DHT22;18686;53.084;8.872;2023-06-26T07:35:36;29.30;67.80
32187;DHT22;18686;53.084;8.872;2023-06-26T07:38:05;29.40;66.30
32187;DHT22;18686;53.084;8.872;2023-06-26T07:40:33;29.40;66.20
32187;DHT22;18686;53.084;8.872;2023-06-26T07:43:01;29.40;65.70
32187;DHT22;18686;53.084;8.872;2023-06-26T07:45:31;29.50;65.30
32187;DHT22;18686;53.084;8.872;2023-06-26T07:47:59;29.50;63.50
32187;DHT22;18686;53.084;8.872;2023-06-26T07:50:27;29.60;63.00
32187;DHT22;18686;53.084;8.872;2023-06-26T07:52:57;29.80;62.00
32187;DHT22;18686;53.084;8.872;2023-06-26T07:55:26;30.10;61.40
32187;DHT22;18686;53.084;8.872;2023-06-26T07:57:54;30.20;59.90
32187;DHT22;18686;53.084;8.872;2023-06-26T08:00:22;30.40;58.90
32187;DHT22;18686;53.084;8.872;2023-06-26T08:02:52;30.50;58.10
32187;DHT22;18686;53.084;8.872;2023-06-26T08:05:20;30.60;58.20
32187;DHT22;18686;53.084;8.872;2023-06-26T08:07:49;30.70;57.70
32187;DHT22;18686;53.084;8.872;2023-06-26T08:10:19;30.80;57.90
32187;DHT22;18686;53.084;8.872;2023-06-26T08:12:47;30.70;57.60
32187;DHT22;18686;53.084;8.872;2023-06-26T08:15:17;30.60;57.60
32187;DHT22;18686;53.084;8.872;2023-06-26T08:17:45;30.60;58.00
32187;DHT22;18686;53.084;8.872;2023-06-26T08:20:14;30.50;58.90
32187;DHT22;18686;53.084;8.872;2023-06-26T08:22:42;30.40;58.80
32187;DHT22;18686;53.084;8.872;2023-06-26T08:25:11;30.50;59.20
32187;DHT22;18686;53.084;8.872;2023-06-26T08:27:40;30.70;59.60
32187;DHT22;18686;53.084;8.872;2023-06-26T08:30:09;31.10;57.90
32187;DHT22;18686;53.084;8.872;2023-06-26T08:32:38;31.50;56.50
32187;DHT22;18686;53.084;8.872;2023-06-26T08:35:07;31.50;55.20
32187;DHT22;18686;53.084;8.872;2023-06-26T08:37:37;31.60;55.10
32187;DHT22;18686;53.084;8.872;2023-06-26T08:40:06;31.20;54.90
32187;DHT22;18686;53.084;8.872;2023-06-26T08:42:35;30.70;55.80
32187;DHT22;18686;53.084;8.872;2023-06-26T08:45:06;30.10;57.50
32187;DHT22;18686;53.084;8.872;2023-06-26T08:47:35;29.30;60.20
32187;DHT22;18686;53.084;8.872;2023-06-26T08:50:08;28.70;63.90
32187;DHT22;18686;53.084;8.872;2023-06-26T08:52:43;28.00;80.80
32187;DHT22;18686;53.084;8.872;2023-06-26T08:55:12;27.10;99.90
32187;DHT22;18686;53.084;8.872;2023-06-26T08:57:43;25.90;99.90
32187;DHT22;18686;53.084;8.872;2023-06-26T09:00:16;24.80;99.90
32187;DHT22;18686;53.084;8.872;2023-06-26T09:02:45;24.00;99.90
32187;DHT22;18686;53.084;8.872;2023-06-26T09:05:13;23.30;99.90
32187;DHT22;18686;53.084;8.872;2023-06-26T09:07:41;22.70;99.90
32187;DHT22;18686;53.084;8.872;2023-06-26T09:10:10;22.50;99.90
32187;DHT22;18686;53.084;8.872;2023-06-26T09:12:41;22.30;99.90
32187;DHT22;18686;53.084;8.872;2023-06-26T09:15:15;22.20;99.90
32187;DHT22;18686;53.084;8.872;2023-06-26T09:17:48;22.20;99.90
32187;DHT22;18686;53.084;8.872;2023-06-26T09:20:17;22.30;99.90
32187;DHT22;18686;53.084;8.872;2023-06-26T09:22:47;22.30;99.90
32187;DHT22;18686;53.084;8.872;2023-06-26T09:25:16;22.60;99.90
32187;DHT22;18686;53.084;8.872;2023-06-26T09:27:45;22.60;99.90
32187;DHT22;18686;53.084;8.872;2023-06-26T09:30:16;22.60;99.90
32187;DHT22;18686;53.084;8.872;2023-06-26T09:32:45;22.80;99.90
32187;DHT22;18686;53.084;8.872;2023-06-26T09:35:14;23.20;99.90
32187;DHT22;18686;53.084;8.872;2023-06-26T09:37:43;23.70;99.90
32187;DHT22;18686;53.084;8.872;2023-06-26T09:40:13;24.20;99.90
32187;DHT22;18686;53.084;8.872;2023-06-26T09:42:41;24.70;99.90
32187;DHT22;18686;53.084;8.872;2023-06-26T09:45:18;24.90;99.90
32187;DHT22;18686;53.084;8.872;2023-06-26T09:47:47;25.20;99.90
32187;DHT22;18686;53.084;8.872;2023-06-26T09:50:22;25.60;99.90
32187;DHT22;18686;53.084;8.872;2023-06-26T09:52:52;26.20;99.90
32187;DHT22;18686;53.084;8.872;2023-06-26T09:55:21;26.10;99.90
32187;DHT22;18686;53.084;8.872;2023-06-26T09:57:50;26.20;99.90
32187;DHT22;18686;53.084;8.872;2023-06-26T10:00:20;26.50;99.90
32187;DHT22;18686;53.084;8.872;2023-06-26T10:02:48;26.50;99.90
32187;DHT22;18686;53.084;8.872;2023-06-26T10:05:17;26.30;99.90
32187;DHT22;18686;53.084;8.872;2023-06-26T10:07:45;26.40;99.90
32187;DHT22;18686;53.084;8.872;2023-06-26T10:10:16;26.40;99.90
32187;DHT22;18686;53.084;8.872;2023-06-26T10:12:47;26.70;99.90
32187;DHT22;18686;53.084;8.872;2023-06-26T10:15:16;27.40;99.90
32187;DHT22;18686;53.084;8.872;2023-06-26T10:17:47;28.20;99.90
32187;DHT22;18686;53.084;8.872;2023-06-26T10:20:17;28.90;99.90
32187;DHT22;18686;53.084;8.872;2023-06-26T10:22:46;29.00;97.60
32187;DHT22;18686;53.084;8.872;2023-06-26T10:25:18;29.20;92.80
32187;DHT22;18686;53.084;8.872;2023-06-26T10:27:50;29.20;92.30
32187;DHT22;18686;53.084;8.872;2023-06-26T10:30:21;29.50;92.10
32187;DHT22;18686;53.084;8.872;2023-06-26T10:32:52;30.40;84.50
32187;DHT22;18686;53.084;8.872;2023-06-26T10:35:20;31.50;77.90
32187;DHT22;18686;53.084;8.872;2023-06-26T10:37:50;32.40;70.60
32187;DHT22;18686;53.084;8.872;2023-06-26T10:40:24;32.70;62.90
32187;DHT22;18686;53.084;8.872;2023-06-26T10:43:05;32.80;62.60
32187;DHT22;18686;53.084;8.872;2023-06-26T10:45:36;32.90;59.20
32187;DHT22;18686;53.084;8.872;2023-06-26T10:48:06;33.20;54.90
32187;DHT22;18686;53.084;8.872;2023-06-26T10:50:34;32.90;54.60
32187;DHT22;18686;53.084;8.872;2023-06-26T10:53:09;32.60;54.20
32187;DHT22;18686;53.084;8.872;2023-06-26T10:55:41;32.40;54.90
32187;DHT22;18686;53.084;8.872;2023-06-26T10:58:31;33.40;53.60
32187;DHT22;18686;53.084;8.872;2023-06-26T11:01:14;34.80;50.50
32187;DHT22;18686;53.084;8.872;2023-06-26T11:03:47;35.40;48.80
32187;DHT22;18686;53.084;8.872;2023-06-26T11:06:20;36.80;46.00
32187;DHT22;18686;53.084;8.872;2023-06-26T11:08:50;38.60;43.30
32187;DHT22;18686;53.084;8.872;2023-06-26T11:11:21;40.30;38.70
32187;DHT22;18686;53.084;8.872;2023-06-26T11:13:50;41.00;36.40
32187;DHT22;18686;53.084;8.872;2023-06-26T11:16:18;41.80;36.70
32187;DHT22;18686;53.084;8.872;2023-06-26T11:18:49;42.70;34.10
32187;DHT22;18686;53.084;8.872;2023-06-26T11:21:20;43.90;32.70
32187;DHT22;18686;53.084;8.872;2023-06-26T11:23:49;44.50;32.50
32187;DHT22;18686;53.084;8.872;2023-06-26T11:26:18;44.20;31.90
32187;DHT22;18686;53.084;8.872;2023-06-26T11:28:49;43.50;32.40
32187;DHT22;18686;53.084;8.872;2023-06-26T11:31:25;43.50;32.20
32187;DHT22;18686;53.084;8.872;2023-06-26T11:33:55;43.80;32.30
32187;DHT22;18686;53.084;8.872;2023-06-26T11:36:24;44.10;30.20
32187;DHT22;18686;53.084;8.872;2023-06-26T11:38:53;44.10;30.10
32187;DHT22;18686;53.084;8.872;2023-06-26T11:41:23;44.00;29.90
32187;DHT22;18686;53.084;8.872;2023-06-26T11:43:52;43.80;30.60
32187;DHT22;18686;53.084;8.872;2023-06-26T11:46:21;44.50;30.60
32187;DHT22;18686;53.084;8.872;2023-06-26T11:48:50;45.00;29.80
32187;DHT22;18686;53.084;8.872;2023-06-26T11:51:20;45.50;29.80
32187;DHT22;18686;53.084;8.872;2023-06-26T11:53:49;46.50;28.90
32187;DHT22;18686;53.084;8.872;2023-06-26T11:56:18;47.10;28.50
32187;DHT22;18686;53.084;8.872;2023-06-26T11:58:56;47.70;27.70
32187;DHT22;18686;53.084;8.872;2023-06-26T12:01:26;48.50;27.50
32187;DHT22;18686;53.084;8.872;2023-06-26T12:03:59;49.60;27.40
32187;DHT22;18686;53.084;8.872;2023-06-26T12:06:33;50.20;27.10
32187;DHT22;18686;53.084;8.872;2023-06-26T12:09:04;51.00;26.50
32187;DHT22;18686;53.084;8.872;2023-06-26T12:11:34;51.30;25.90
32187;DHT22;18686;53.084;8.872;2023-06-26T12:14:03;51.00;25.70
32187;DHT22;18686;53.084;8.872;2023-06-26T12:16:34;50.20;25.90
32187;DHT22;18686;53.084;8.872;2023-06-26T12:19:03;50.10;26.30
32187;DHT22;18686;53.084;8.872;2023-06-26T12:21:49;50.40;25.90
32187;DHT22;18686;53.084;8.872;2023-06-26T12:24:20;50.60;26.10
32187;DHT22;18686;53.084;8.872;2023-06-26T12:26:51;49.30;25.80
32187;DHT22;18686;53.084;8.872;2023-06-26T12:29:21;48.00;26.50
32187;DHT22;18686;53.084;8.872;2023-06-26T12:31:51;46.50;27.50
32187;DHT22;18686;53.084;8.872;2023-06-26T12:34:21;45.00;27.80
32187;DHT22;18686;53.084;8.872;2023-06-26T12:36:53;43.40;28.60
32187;DHT22;18686;53.084;8.872;2023-06-26T12:39:21;43.00;29.20
32187;DHT22;18686;53.084;8.872;2023-06-26T12:41:53;43.70;28.80
32187;DHT22;18686;53.084;8.872;2023-06-26T12:44:24;44.80;28.20
32187;DHT22;18686;53.084;8.872;2023-06-26T12:46:55;46.00;27.30
32187;DHT22;18686;53.084;8.872;2023-06-26T12:49:30;46.00;26.40
32187;DHT22;18686;53.084;8.872;2023-06-26T12:52:03;44.60;26.80
32187;DHT22;18686;53.084;8.872;2023-06-26T12:54:33;42.80;27.80
32187;DHT22;18686;53.084;8.872;2023-06-26T12:57:01;41.20;29.00
32187;DHT22;18686;53.084;8.872;2023-06-26T12:59:31;39.90;29.90
32187;DHT22;18686;53.084;8.872;2023-06-26T13:01:59;38.60;30.50
32187;DHT22;18686;53.084;8.872;2023-06-26T13:04:28;37.60;32.10
32187;DHT22;18686;53.084;8.872;2023-06-26T13:06:56;36.90;33.50
32187;DHT22;18686;53.084;8.872;2023-06-26T13:09:26;36.20;33.60
32187;DHT22;18686;53.084;8.872;2023-06-26T13:11:54;36.00;34.10
32187;DHT22;18686;53.084;8.872;2023-06-26T13:14:23;36.00;34.00
32187;DHT22;18686;53.084;8.872;2023-06-26T13:16:51;36.60;33.50
32187;DHT22;18686;53.084;8.872;2023-06-26T13:19:19;38.00;32.60
32187;DHT22;18686;53.084;8.872;2023-06-26T13:21:47;40.10;30.60
32187;DHT22;18686;53.084;8.872;2023-06-26T13:24:16;41.80;29.70
32187;DHT22;18686;53.084;8.872;2023-06-26T13:26:46;43.50;28.00
32187;DHT22;18686;53.084;8.872;2023-06-26T13:29:14;45.00;27.40
32187;DHT22;18686;53.084;8.872;2023-06-26T13:31:42;46.10;27.20
32187;DHT22;18686;53.084;8.872;2023-06-26T13:34:20;47.30;26.50
32187;DHT22;18686;53.084;8.872;2023-06-26T13:36:49;48.00;26.50
32187;DHT22;18686;53.084;8.872;2023-06-26T13:39:17;48.10;26.10
32187;DHT22;18686;53.084;8.872;2023-06-26T13:41:46;47.80;26.60
32187;DHT22;18686;53.084;8.872;2023-06-26T13:44:15;47.50;26.30
32187;DHT22;18686;53.084;8.872;2023-06-26T13:46:57;46.90;26.60
32187;DHT22;18686;53.084;8.872;2023-06-26T13:49:25;46.40;26.60
32187;DHT22;18686;53.084;8.872;2023-06-26T13:51:54;46.20;26.80
32187;DHT22;18686;53.084;8.872;2023-06-26T13:54:22;46.20;26.50
32187;DHT22;18686;53.084;8.872;2023-06-26T13:56:52;45.30;26.90
32187;DHT22;18686;53.084;8.872;2023-06-26T13:59:25;45.10;27.40
32187;DHT22;18686;53.084;8.872;2023-06-26T14:01:54;45.60;27.20
32187;DHT22;18686;53.084;8.872;2023-06-26T14:04:22;45.70;26.60
32187;DHT22;18686;53.084;8.872;2023-06-26T14:06:51;45.10;26.70
32187;DHT22;18686;53.084;8.872;2023-06-26T14:09:19;43.80;27.50
32187;DHT22;18686;53.084;8.872;2023-06-26T14:11:47;42.00;28.20
32187;DHT22;18686;53.084;8.872;2023-06-26T14:14:17;40.10;28.60
32187;DHT22;18686;53.084;8.872;2023-06-26T14:16:45;38.30;29.90
32187;DHT22;18686;53.084;8.872;2023-06-26T14:19:16;36.90;31.40
32187;DHT22;18686;53.084;8.872;2023-06-26T14:21:45;35.70;33.10
32187;DHT22;18686;53.084;8.872;2023-06-26T14:24:14;34.90;32.80
32187;DHT22;18686;53.084;8.872;2023-06-26T14:26:42;34.40;33.40
32187;DHT22;18686;53.084;8.872;2023-06-26T14:29:10;33.80;35.10
32187;DHT22;18686;53.084;8.872;2023-06-26T14:31:41;33.50;35.40
32187;DHT22;18686;53.084;8.872;2023-06-26T14:34:09;33.10;35.60
32187;DHT22;18686;53.084;8.872;2023-06-26T14:36:37;32.70;35.60
32187;DHT22;18686;53.084;8.872;2023-06-26T14:39:06;32.40;36.60
32187;DHT22;18686;53.084;8.872;2023-06-26T14:41:34;32.00;37.10
32187;DHT22;18686;53.084;8.872;2023-06-26T14:44:03;31.70;37.20
32187;DHT22;18686;53.084;8.872;2023-06-26T14:46:35;31.10;38.30
32187;DHT22;18686;53.084;8.872;2023-06-26T14:49:05;30.40;39.30
32187;DHT22;18686;53.084;8.872;2023-06-26T14:51:33;29.90;40.40
32187;DHT22;18686;53.084;8.872;2023-06-26T14:54:02;29.40;41.10
32187;DHT22;18686;53.084;8.872;2023-06-26T14:56:30;29.00;41.50
32187;DHT22;18686;53.084;8.872;2023-06-26T14:58:58;28.70;42.40
32187;DHT22;18686;53.084;8.872;2023-06-26T15:01:27;28.40;43.10
32187;DHT22;18686;53.084;8.872;2023-06-26T15:03:57;28.30;43.00
32187;DHT22;18686;53.084;8.872;2023-06-26T15:06:26;28.30;42.80
32187;DHT22;18686;53.084;8.872;2023-06-26T15:08:55;28.40;42.40
32187;DHT22;18686;53.084;8.872;2023-06-26T15:11:23;28.50;43.00
32187;DHT22;18686;53.084;8.872;2023-06-26T15:13:51;28.40;43.30
32187;DHT22;18686;53.084;8.872;2023-06-26T15:16:19;28.30;43.90
32187;DHT22;18686;53.084;8.872;2023-06-26T15:18:48;28.00;44.70
32187;DHT22;18686;53.084;8.872;2023-06-26T15:21:16;27.80;43.70
32187;DHT22;18686;53.084;8.872;2023-06-26T15:23:47;27.50;45.00
32187;DHT22;18686;53.084;8.872;2023-06-26T15:26:15;27.30;45.00
32187;DHT22;18686;53.084;8.872;2023-06-26T15:28:43;27.20;45.50
32187;DHT22;18686;53.084;8.872;2023-06-26T15:31:11;27.00;47.60
32187;DHT22;18686;53.084;8.872;2023-06-26T15:33:40;27.00;46.20
32187;DHT22;18686;53.084;8.872;2023-06-26T15:36:08;27.00;46.40
32187;DHT22;18686;53.084;8.872;2023-06-26T15:38:37;26.90;46.70
32187;DHT22;18686;53.084;8.872;2023-06-26T15:41:07;27.00;46.10
32187;DHT22;18686;53.084;8.872;2023-06-26T15:43:35;27.00;47.00
32187;DHT22;18686;53.084;8.872;2023-06-26T15:46:04;26.90;46.20